createdAt,value
2022-09-01T00:01:06.593Z,56.31
2022-09-01T00:03:39.560Z,56.47
2022-09-01T00:06:11.758Z,56.47
2022-09-01T00:08:43.679Z,56.49
2022-09-01T00:11:15.569Z,56.84
2022-09-01T00:13:48.525Z,56.77
2022-09-01T00:16:21.771Z,57.03
2022-09-01T00:18:55.500Z,57.20
2022-09-01T00:21:30.527Z,57.39
2022-09-01T00:24:03.692Z,57.49
2022-09-01T00:26:35.661Z,57.44
2022-09-01T00:29:08.210Z,57.56
2022-09-01T00:31:40.433Z,57.60
2022-09-01T00:34:12.744Z,57.78
2022-09-01T00:36:45.145Z,57.82
2022-09-01T00:39:19.407Z,57.96
2022-09-01T00:41:51.419Z,58.02
2022-09-01T00:44:26.904Z,58.11
2022-09-01T00:47:01.955Z,58.15
2022-09-01T00:49:37.781Z,58.22
2022-09-01T00:52:14.868Z,58.39
2022-09-01T00:54:50.433Z,58.61
2022-09-01T00:57:23.037Z,58.62
2022-09-01T00:59:59.004Z,58.74
2022-09-01T01:02:31.417Z,58.94
2022-09-01T01:05:03.483Z,59.12
2022-09-01T01:07:38.885Z,59.16
2022-09-01T01:10:13.182Z,59.37
2022-09-01T01:12:46.091Z,59.60
2022-09-01T01:15:18.747Z,59.61
2022-09-01T01:17:50.616Z,59.77
2022-09-01T01:20:45.694Z,59.68
2022-09-01T01:23:22.909Z,59.92
2022-09-01T01:25:59.083Z,60.05
2022-09-01T01:28:36.192Z,60.12
2022-09-01T01:31:12.145Z,60.13
2022-09-01T01:33:46.853Z,60.32
2022-09-01T01:36:24.913Z,60.32
2022-09-01T01:39:02.817Z,60.55
2022-09-01T01:41:37.544Z,60.43
2022-09-01T01:44:09.738Z,60.50
2022-09-01T01:46:45.010Z,60.69
2022-09-01T01:49:20.045Z,60.69
2022-09-01T01:51:56.157Z,60.91
2022-09-01T01:54:32.772Z,61.02
2022-09-01T01:57:05.277Z,61.12
2022-09-01T01:59:38.844Z,61.38
2022-09-01T02:02:12.997Z,61.50
2022-09-01T02:04:45.008Z,61.72
2022-09-01T02:07:16.964Z,61.75
2022-09-01T02:09:48.990Z,61.92
2022-09-01T02:12:21.348Z,62.10
2022-09-01T02:14:54.922Z,62.11
2022-09-01T02:17:27.992Z,62.17
2022-09-01T02:20:00.033Z,62.41
2022-09-01T02:22:32.021Z,62.51
2022-09-01T02:25:03.954Z,62.80
2022-09-01T02:27:36.853Z,62.66
2022-09-01T02:30:12.871Z,62.97
2022-09-01T02:32:44.997Z,62.87
2022-09-01T02:35:16.907Z,62.92
2022-09-01T02:37:56.533Z,63.09
2022-09-01T02:40:30.557Z,63.17
2022-09-01T02:43:03.863Z,63.17
2022-09-01T02:45:36.070Z,63.25
2022-09-01T02:48:09.845Z,63.32
2022-09-01T02:50:43.501Z,63.38
2022-09-01T02:53:15.586Z,63.49
2022-09-01T02:55:48.519Z,63.55
2022-09-01T02:58:21.559Z,63.72
2022-09-01T03:00:58.652Z,63.77
2022-09-01T03:03:30.810Z,63.94
2022-09-01T03:06:02.859Z,63.99
2022-09-01T03:08:39.651Z,64.10
2022-09-01T03:11:13.395Z,64.30
2022-09-01T03:13:46.155Z,64.53
2022-09-01T03:16:19.165Z,64.56
2022-09-01T03:18:51.950Z,64.65
2022-09-01T03:21:24.666Z,64.92
2022-09-01T03:23:58.313Z,64.91
2022-09-01T03:26:31.147Z,64.93
2022-09-01T03:29:04.450Z,64.99
2022-09-01T03:31:36.587Z,64.96
2022-09-01T03:34:11.081Z,65.04
2022-09-01T03:36:50.543Z,64.99
2022-09-01T03:39:33.437Z,65.04
2022-09-01T03:42:08.755Z,65.14
2022-09-01T03:44:42.934Z,65.06
2022-09-01T03:47:15.472Z,65.16
2022-09-01T03:49:49.272Z,65.02
2022-09-01T03:52:24.059Z,65.07
2022-09-01T03:54:56.118Z,65.25
2022-09-01T03:57:29.852Z,65.30
2022-09-01T04:00:20.426Z,65.33
2022-09-01T04:02:57.611Z,65.41
2022-09-01T04:05:33.953Z,65.36
2022-09-01T04:08:10.973Z,65.34
2022-09-01T04:10:51.135Z,65.49
2022-09-01T04:13:30.389Z,65.51
2022-09-01T04:16:02.862Z,65.41
2022-09-01T04:18:35.090Z,65.40
2022-09-01T04:21:09.032Z,65.49
2022-09-01T04:23:41.141Z,65.54
2022-09-01T04:26:15.692Z,65.58
2022-09-01T04:28:50.915Z,65.46
2022-09-01T04:31:24.230Z,65.02
2022-09-01T04:33:56.743Z,64.36
2022-09-01T04:36:34.202Z,63.68
2022-09-01T04:39:09.550Z,62.84
2022-09-01T04:41:46.175Z,61.70
2022-09-01T04:44:19.198Z,60.51
2022-09-01T04:46:51.653Z,59.45
2022-09-01T04:49:26.471Z,58.20
2022-09-01T04:51:58.531Z,56.88
2022-09-01T04:54:35.037Z,55.93
2022-09-01T04:57:07.127Z,54.39
2022-09-01T04:59:43.289Z,53.37
2022-09-01T05:02:15.286Z,51.69
2022-09-01T05:04:47.283Z,50.51
2022-09-01T05:07:20.163Z,49.04
2022-09-01T05:09:57.992Z,48.15
2022-09-01T05:12:53.325Z,46.82
2022-09-01T05:15:25.474Z,45.34
2022-09-01T05:18:02.385Z,44.24
2022-09-01T05:20:35.340Z,42.99
2022-09-01T05:23:07.999Z,41.99
2022-09-01T05:25:44.041Z,41.29
2022-09-01T05:28:18.812Z,40.47
2022-09-01T05:30:54.140Z,39.42
2022-09-01T05:33:26.167Z,38.61
2022-09-01T05:36:01.304Z,38.07
2022-09-01T05:38:34.037Z,37.27
2022-09-01T05:41:08.791Z,36.45
2022-09-01T05:43:45.409Z,35.72
2022-09-01T05:46:20.750Z,35.07
2022-09-01T05:48:55.241Z,34.41
2022-09-01T05:51:44.312Z,33.36
2022-09-01T05:54:18.637Z,32.92
2022-09-01T05:56:53.633Z,32.11
2022-09-01T05:59:31.692Z,31.48
2022-09-01T06:02:09.082Z,30.91
2022-09-01T06:04:44.303Z,30.44
2022-09-01T06:07:25.225Z,29.76
2022-09-01T06:09:59.940Z,29.35
2022-09-01T06:12:32.271Z,28.56
2022-09-01T06:15:07.417Z,27.84
2022-09-01T06:17:39.795Z,27.39
2022-09-01T06:20:12.908Z,26.78
2022-09-01T06:22:47.738Z,26.65
2022-09-01T06:25:21.816Z,26.70
2022-09-01T06:27:54.182Z,26.26
2022-09-01T06:30:26.858Z,25.88
2022-09-01T06:33:09.450Z,25.55
2022-09-01T06:35:44.897Z,24.94
2022-09-01T06:38:19.461Z,24.84
2022-09-01T06:41:00.561Z,24.37
2022-09-01T06:43:33.572Z,24.22
2022-09-01T06:46:05.878Z,23.66
2022-09-01T06:48:38.726Z,23.26
2022-09-01T06:51:16.027Z,22.88
2022-09-01T06:53:56.803Z,22.79
2022-09-01T06:56:34.113Z,22.46
2022-09-01T06:59:15.761Z,22.18
2022-09-01T07:02:01.513Z,22.08
2022-09-01T07:04:49.028Z,21.80
2022-09-01T07:10:33.367Z,21.63
2022-09-01T07:13:22.486Z,21.47
2022-09-01T07:18:59.813Z,20.49
2022-09-01T07:24:31.612Z,20.86
2022-09-01T07:27:35.562Z,20.84
2022-09-01T07:30:12.030Z,20.90
2022-09-01T07:32:47.521Z,21.13
2022-09-01T07:35:22.560Z,20.81
2022-09-01T07:42:58.861Z,20.53
2022-09-01T07:44:10.353Z,20.56
2022-09-01T07:50:24.062Z,20.19
2022-09-01T07:52:44.170Z,20.29
2022-09-01T07:55:18.261Z,20.67
2022-09-01T07:57:52.178Z,20.72
2022-09-01T08:00:24.436Z,20.63
2022-09-01T08:03:02.750Z,20.12
2022-09-01T08:05:36.239Z,20.32
2022-09-01T08:08:27.933Z,20.40
2022-09-01T08:11:07.604Z,20.92
2022-09-01T08:13:41.880Z,20.39
2022-09-01T08:16:17.084Z,20.73
2022-09-01T08:18:51.287Z,21.15
2022-09-01T08:21:35.468Z,21.30
2022-09-01T08:24:09.238Z,21.85
2022-09-01T08:26:41.695Z,21.98
2022-09-01T08:29:13.830Z,22.91
2022-09-01T08:31:49.221Z,23.99
2022-09-01T08:34:21.259Z,24.67
2022-09-01T08:36:53.628Z,25.59
2022-09-01T08:39:26.645Z,26.74
2022-09-01T08:42:06.808Z,27.49
2022-09-01T08:44:47.771Z,28.15
2022-09-01T08:47:35.570Z,28.76
2022-09-01T08:50:12.539Z,30.06
2022-09-01T08:53:12.133Z,30.45
2022-09-01T08:55:47.464Z,30.13
2022-09-01T08:58:20.651Z,30.41
2022-09-01T09:01:21.917Z,29.83
2022-09-01T09:04:08.682Z,29.86
2022-09-01T09:06:49.462Z,28.91
2022-09-01T09:09:32.322Z,28.10
2022-09-01T09:12:26.532Z,28.19
2022-09-01T09:15:12.260Z,27.04
2022-09-01T09:17:56.061Z,26.40
2022-09-01T09:20:31.965Z,26.59
2022-09-01T09:23:20.138Z,26.65
2022-09-01T09:25:52.245Z,26.19
2022-09-01T09:28:24.498Z,25.99
2022-09-01T09:31:28.669Z,26.63
2022-09-01T09:34:02.434Z,26.81
2022-09-01T09:36:37.329Z,27.02
2022-09-01T09:39:13.645Z,27.27
2022-09-01T09:42:02.640Z,27.92
2022-09-01T09:44:36.278Z,28.37
2022-09-01T09:47:33.407Z,29.10
2022-09-01T09:50:16.964Z,29.34
2022-09-01T09:52:50.168Z,28.97
2022-09-01T09:55:28.469Z,28.72
2022-09-01T09:58:02.873Z,28.23
2022-09-01T10:00:36.790Z,28.03
2022-09-01T10:03:12.560Z,28.09
2022-09-01T10:05:48.413Z,28.87
2022-09-01T10:08:45.430Z,28.70
2022-09-01T10:11:36.012Z,28.63
2022-09-01T10:14:51.808Z,27.83
2022-09-01T10:17:17.269Z,27.08
2022-09-01T10:19:54.287Z,27.08
2022-09-01T10:22:27.808Z,26.87
2022-09-01T10:25:00.737Z,27.23
2022-09-01T10:27:37.051Z,26.85
2022-09-01T10:30:19.256Z,26.53
2022-09-01T10:32:55.938Z,26.18
2022-09-01T10:35:32.291Z,26.47
2022-09-01T10:38:12.007Z,26.19
2022-09-01T10:40:50.058Z,26.14
2022-09-01T10:43:41.499Z,26.48
2022-09-01T10:46:50.399Z,26.37
2022-09-01T10:49:50.392Z,26.38
2022-09-01T10:52:58.404Z,26.01
2022-09-01T10:55:36.671Z,26.50
2022-09-01T11:02:35.001Z,26.60
2022-09-01T11:05:17.243Z,26.41
2022-09-01T11:08:15.170Z,26.29
2022-09-01T11:10:54.366Z,26.96
2022-09-01T11:13:46.291Z,26.59
2022-09-01T11:16:47.275Z,26.67
2022-09-01T11:19:34.183Z,27.17
2022-09-01T11:22:17.537Z,27.25
2022-09-01T11:25:40.774Z,26.92
2022-09-01T11:28:41.786Z,26.77
2022-09-01T11:31:41.989Z,26.96
2022-09-01T11:34:17.670Z,26.46
2022-09-01T11:36:56.173Z,27.06
2022-09-01T11:39:49.980Z,27.23
2022-09-01T11:42:27.861Z,27.20
2022-09-01T11:45:04.503Z,27.16
2022-09-01T11:47:41.596Z,27.75
2022-09-01T11:50:22.359Z,28.20
2022-09-01T11:53:04.990Z,27.93
2022-09-01T11:55:40.113Z,27.69
2022-09-01T11:58:17.957Z,27.95
2022-09-01T12:00:50.577Z,27.90
2022-09-01T12:03:27.151Z,27.85
2022-09-01T12:06:03.036Z,28.27
2022-09-01T12:08:37.899Z,28.26
2022-09-01T12:11:12.462Z,28.29
2022-09-01T12:13:55.897Z,28.48
2022-09-01T12:16:29.201Z,28.53
2022-09-01T12:19:02.201Z,28.04
2022-09-01T12:21:38.277Z,28.29
2022-09-01T12:24:19.740Z,28.23
2022-09-01T12:26:55.901Z,27.90
2022-09-01T12:29:32.043Z,27.78
2022-09-01T12:32:05.843Z,27.87
2022-09-01T12:34:44.335Z,27.94
2022-09-01T12:37:26.488Z,28.20
2022-09-01T12:40:00.371Z,28.70
2022-09-01T12:42:41.096Z,29.19
2022-09-01T12:45:36.182Z,29.57
2022-09-01T12:48:08.543Z,29.79
2022-09-01T12:50:47.075Z,29.29
2022-09-01T12:53:30.365Z,28.87
2022-09-01T12:56:17.277Z,29.31
2022-09-01T12:58:54.921Z,29.41
2022-09-01T13:01:33.638Z,29.43
2022-09-01T13:04:15.949Z,29.19
2022-09-01T13:06:48.650Z,28.64
2022-09-01T13:09:21.863Z,28.89
2022-09-01T13:12:09.182Z,28.79
2022-09-01T13:14:41.133Z,28.78
2022-09-01T13:17:14.676Z,28.58
2022-09-01T13:19:46.978Z,28.13
2022-09-01T13:22:19.356Z,28.50
2022-09-01T13:25:22.752Z,28.74
2022-09-01T13:28:16.412Z,29.00
2022-09-01T13:34:10.408Z,29.77
2022-09-01T13:36:47.420Z,29.81
2022-09-01T13:39:22.987Z,30.22
2022-09-01T13:41:54.958Z,30.47
2022-09-01T13:44:26.866Z,30.59
2022-09-01T13:46:59.462Z,31.07
2022-09-01T13:52:24.255Z,30.98
2022-09-01T13:54:56.346Z,31.43
2022-09-01T13:57:35.882Z,31.75
2022-09-01T14:00:15.751Z,32.14
2022-09-01T14:02:50.285Z,31.75
2022-09-01T14:05:25.107Z,31.73
2022-09-01T14:07:58.606Z,31.96
2022-09-01T14:10:31.993Z,31.93
2022-09-01T14:13:04.322Z,32.04
2022-09-01T14:15:37.079Z,32.22
2022-09-01T14:18:09.870Z,32.08
2022-09-01T14:20:49.920Z,32.49
2022-09-01T14:23:22.423Z,32.66
2022-09-01T14:25:54.440Z,32.47
2022-09-01T14:28:26.695Z,32.89
2022-09-01T14:33:31.585Z,33.44
2022-09-01T14:36:04.436Z,33.42
2022-09-01T14:38:36.675Z,33.26
2022-09-01T14:41:08.844Z,33.35
2022-09-01T14:43:43.015Z,33.05
2022-09-01T14:46:16.550Z,32.72
2022-09-01T14:48:50.830Z,33.11
2022-09-01T14:51:26.184Z,33.32
2022-09-01T14:53:58.816Z,33.11
2022-09-01T14:56:30.926Z,32.66
2022-09-01T14:59:02.875Z,32.51
2022-09-01T15:01:35.306Z,32.28
2022-09-01T15:04:07.328Z,31.97
2022-09-01T15:06:39.326Z,32.12
2022-09-01T15:09:13.324Z,32.10
2022-09-01T15:11:48.341Z,32.19
2022-09-01T15:14:20.637Z,32.32
2022-09-01T15:16:52.648Z,32.12
2022-09-01T15:19:25.019Z,32.31
2022-09-01T15:21:57.370Z,32.45
2022-09-01T15:24:29.470Z,32.58
2022-09-01T15:27:01.454Z,32.81
2022-09-01T15:29:34.316Z,32.51
2022-09-01T15:32:07.040Z,32.85
2022-09-01T15:34:39.061Z,32.94
2022-09-01T15:37:11.297Z,32.94
2022-09-01T15:39:43.278Z,32.78
2022-09-01T15:44:52.525Z,32.92
2022-09-01T15:47:24.425Z,32.99
2022-09-01T15:49:56.357Z,33.42
2022-09-01T15:52:30.319Z,33.20
2022-09-01T15:55:03.813Z,33.36
2022-09-01T15:57:36.140Z,33.38
2022-09-01T16:00:13.294Z,33.39
2022-09-01T16:02:45.320Z,33.31
2022-09-01T16:05:17.906Z,33.47
2022-09-01T16:07:51.131Z,33.88
2022-09-01T16:10:24.176Z,34.19
2022-09-01T16:12:57.214Z,34.27
2022-09-01T16:15:29.816Z,34.01
2022-09-01T16:18:16.428Z,34.40
2022-09-01T16:20:56.419Z,34.63
2022-09-01T16:23:35.636Z,34.49
2022-09-01T16:26:08.009Z,34.89
2022-09-01T16:28:43.798Z,34.80
2022-09-01T16:31:19.140Z,34.94
2022-09-01T16:33:54.377Z,35.13
2022-09-01T16:36:38.157Z,35.27
2022-09-01T16:39:18.496Z,36.01
2022-09-01T16:42:01.244Z,36.01
2022-09-01T16:44:47.767Z,36.29
2022-09-01T16:47:34.558Z,36.31
2022-09-01T16:50:16.310Z,36.15
2022-09-01T16:53:04.153Z,36.34
2022-09-01T16:55:49.024Z,36.35
2022-09-01T16:58:29.210Z,36.35
2022-09-01T17:01:17.276Z,36.44
2022-09-01T17:03:58.005Z,36.50
2022-09-01T17:06:35.320Z,36.63
2022-09-01T17:09:16.559Z,36.73
2022-09-01T17:11:53.930Z,36.84
2022-09-01T17:14:39.129Z,37.01
2022-09-01T17:17:15.789Z,37.10
2022-09-01T17:19:52.137Z,37.25
2022-09-01T17:22:24.459Z,37.75
2022-09-01T17:27:40.177Z,38.17
2022-09-01T17:30:13.506Z,38.46
2022-09-01T17:33:17.454Z,38.66
2022-09-01T17:36:04.786Z,38.97
2022-09-01T17:38:54.411Z,38.74
2022-09-01T17:41:36.335Z,39.14
2022-09-01T17:44:21.219Z,39.23
2022-09-01T17:47:00.098Z,39.43
2022-09-01T17:49:40.013Z,39.54
2022-09-01T17:52:20.750Z,39.72
2022-09-01T17:54:59.747Z,40.07
2022-09-01T17:57:38.949Z,40.28
2022-09-01T18:00:23.046Z,40.63
2022-09-01T18:03:19.176Z,40.80
2022-09-01T18:06:03.211Z,41.19
2022-09-01T18:08:41.979Z,41.38
2022-09-01T18:11:18.206Z,41.42
2022-09-01T18:13:54.424Z,41.60
2022-09-01T18:16:30.740Z,41.71
2022-09-01T18:19:10.442Z,42.14
2022-09-01T18:21:50.906Z,42.47
2022-09-01T18:24:30.139Z,42.56
2022-09-01T18:27:02.759Z,42.78
2022-09-01T18:29:36.615Z,42.91
2022-09-01T18:32:33.348Z,43.18
2022-09-01T18:35:32.626Z,43.23
2022-09-01T18:38:16.009Z,43.48
2022-09-01T18:41:03.701Z,43.67
2022-09-01T18:43:42.962Z,44.09
2022-09-01T18:46:24.069Z,44.25
2022-09-01T18:49:04.590Z,44.32
2022-09-01T18:51:53.493Z,44.50
2022-09-01T18:54:34.622Z,44.72
2022-09-01T18:57:08.886Z,44.76
2022-09-01T19:00:17.758Z,45.10
2022-09-01T19:03:16.094Z,45.14
2022-09-01T19:06:02.449Z,45.56
2022-09-01T19:08:47.812Z,45.46
2022-09-01T19:11:33.397Z,45.58
2022-09-01T19:14:12.214Z,45.75
2022-09-01T19:16:56.801Z,45.78
2022-09-01T19:19:43.687Z,45.91
2022-09-01T19:22:20.375Z,45.92
2022-09-01T19:25:19.325Z,46.14
2022-09-01T19:27:58.057Z,46.46
2022-09-01T19:30:35.365Z,46.65
2022-09-01T19:33:09.041Z,46.56
2022-09-01T19:35:44.097Z,46.77
2022-09-01T19:38:23.838Z,47.05
2022-09-01T19:41:00.010Z,47.24
2022-09-01T19:43:38.682Z,47.31
2022-09-01T19:46:22.396Z,47.56
2022-09-01T19:48:59.552Z,47.65
2022-09-01T19:51:35.861Z,47.79
2022-09-01T19:54:16.231Z,48.03
2022-09-01T19:56:55.694Z,48.15
2022-09-01T19:59:32.273Z,48.24
2022-09-01T20:02:10.766Z,48.48
2022-09-01T20:04:53.536Z,48.49
2022-09-01T20:07:37.322Z,48.74
2022-09-01T20:10:23.418Z,48.85
2022-09-01T20:13:07.901Z,48.97
2022-09-01T20:15:45.394Z,49.11
2022-09-01T20:18:26.897Z,49.28
2022-09-01T20:21:03.659Z,49.47
2022-09-01T20:23:42.998Z,49.65
2022-09-01T20:26:22.268Z,49.75
2022-09-01T20:29:00.752Z,49.95
2022-09-01T20:31:35.262Z,50.07
2022-09-01T20:34:15.295Z,50.27
2022-09-01T20:36:50.643Z,50.45
2022-09-01T20:39:50.115Z,50.55
2022-09-01T20:42:31.317Z,50.97
2022-09-01T20:45:10.884Z,50.93
2022-09-01T20:47:49.880Z,50.91
2022-09-01T20:50:26.782Z,51.18
2022-09-01T20:53:20.686Z,51.30
2022-09-01T20:55:58.959Z,51.52
2022-09-01T20:58:43.143Z,51.73
2022-09-01T21:01:21.825Z,51.84
2022-09-01T21:04:06.042Z,51.93
2022-09-01T21:06:51.698Z,52.14
2022-09-01T21:09:32.538Z,52.17
2022-09-01T21:12:11.304Z,52.29
2022-09-01T21:14:55.481Z,52.33
2022-09-01T21:17:43.824Z,52.47
2022-09-01T21:20:23.171Z,52.59
2022-09-01T21:22:57.582Z,52.73
2022-09-01T21:25:29.582Z,52.92
2022-09-01T21:28:06.728Z,52.84
2022-09-01T21:30:39.088Z,53.05
2022-09-01T21:33:11.621Z,53.09
2022-09-01T21:35:43.680Z,53.25
2022-09-01T21:38:15.610Z,53.61
2022-09-01T21:40:49.180Z,53.78
2022-09-01T21:43:23.904Z,53.89
2022-09-01T21:45:55.968Z,53.92
2022-09-01T21:48:28.934Z,53.90
2022-09-01T21:51:00.995Z,54.39
2022-09-01T21:53:33.030Z,54.30
2022-09-01T21:56:05.341Z,54.44
2022-09-01T21:58:39.968Z,54.49
2022-09-01T22:01:14.225Z,54.60
2022-09-01T22:03:46.427Z,54.73
2022-09-01T22:06:18.316Z,54.77
2022-09-01T22:08:50.406Z,54.81
2022-09-01T22:11:25.447Z,54.89
2022-09-01T22:14:00.341Z,55.01
2022-09-01T22:16:32.728Z,54.75
2022-09-01T22:19:04.820Z,54.80
2022-09-01T22:21:38.330Z,55.05
2022-09-01T22:24:10.749Z,54.94
2022-09-01T22:26:44.244Z,54.94
2022-09-01T22:29:18.727Z,54.92
2022-09-01T22:31:50.614Z,54.83
2022-09-01T22:34:22.621Z,54.77
2022-09-01T22:36:54.590Z,54.95
2022-09-01T22:39:26.561Z,55.22
2022-09-01T22:41:58.726Z,55.27
2022-09-01T22:44:30.530Z,55.17
2022-09-01T22:47:03.164Z,55.34
2022-09-01T22:49:35.177Z,55.18
2022-09-01T22:52:07.322Z,55.33
2022-09-01T22:54:40.725Z,55.25
2022-09-01T22:57:12.873Z,55.09
2022-09-01T22:59:44.915Z,55.08
2022-09-01T23:02:17.038Z,54.90
2022-09-01T23:04:50.245Z,54.80
2022-09-01T23:07:22.200Z,54.48
2022-09-01T23:09:54.244Z,54.46
2022-09-01T23:12:27.030Z,54.62
2022-09-01T23:14:58.969Z,54.70
2022-09-01T23:17:31.201Z,54.65
2022-09-01T23:20:03.251Z,54.53
2022-09-01T23:22:35.143Z,54.63
2022-09-01T23:25:09.990Z,54.44
2022-09-01T23:27:42.273Z,54.64
2022-09-01T23:30:16.763Z,54.65
2022-09-01T23:32:48.668Z,54.42
2022-09-01T23:35:20.767Z,54.66
2022-09-01T23:37:52.635Z,54.65
2022-09-01T23:40:24.850Z,54.95
2022-09-01T23:42:56.943Z,54.76
2022-09-01T23:45:29.849Z,54.68
2022-09-01T23:48:08.225Z,54.72
2022-09-01T23:50:45.857Z,54.85
2022-09-01T23:53:18.599Z,54.85
2022-09-01T23:55:52.681Z,54.75
2022-09-01T23:58:26.749Z,54.57
